sensor_id;sensor_type;location;lat;lon;timestamp;temperature;humidity
5136;DHT22;2586;48.710;9.202;2023-05-14T00:01:05;11.70;1.00
5136;DHT22;2586;48.710;9.202;2023-05-14T00:03:32;11.60;1.00
5136;DHT22;2586;48.710;9.202;2023-05-14T00:05:58;11.60;1.00
5136;DHT22;2586;48.710;9.202;2023-05-14T00:08:23;11.60;1.00
5136;DHT22;2586;48.710;9.202;2023-05-14T00:10:49;11.60;1.00
5136;DHT22;2586;48.710;9.202;2023-05-14T00:13:15;11.70;1.00
5136;DHT22;2586;48.710;9.202;2023-05-14T00:15:40;11.60;1.00
5136;DHT22;2586;48.710;9.202;2023-05-14T00:18:06;11.60;1.00
5136;DHT22;2586;48.710;9.202;2023-05-14T00:20:31;11.70;1.00
5136;DHT22;2586;48.710;9.202;2023-05-14T00:22:57;11.70;1.00
5136;DHT22;2586;48.710;9.202;2023-05-14T00:25:23;11.60;99.90
5136;DHT22;2586;48.710;9.202;2023-05-14T00:27:48;11.60;99.90
5136;DHT22;2586;48.710;9.202;2023-05-14T00:30:14;11.70;99.90
5136;DHT22;2586;48.710;9.202;2023-05-14T00:32:39;11.60;99.90
5136;DHT22;2586;48.710;9.202;2023-05-14T00:35:05;11.60;99.90
5136;DHT22;2586;48.710;9.202;2023-05-14T00:37:31;11.60;99.90
5136;DHT22;2586;48.710;9.202;2023-05-14T00:39:56;11.60;99.90
5136;DHT22;2586;48.710;9.202;2023-05-14T00:42:23;11.60;99.90
5136;DHT22;2586;48.710;9.202;2023-05-14T00:44:48;11.60;99.90
5136;DHT22;2586;48.710;9.202;2023-05-14T00:47:14;11.60;99.90
5136;DHT22;2586;48.710;9.202;2023-05-14T00:49:40;11.60;99.90
5136;DHT22;2586;48.710;9.202;2023-05-14T00:52:06;11.60;99.90
5136;DHT22;2586;48.710;9.202;2023-05-14T00:54:32;11.60;1.00
5136;DHT22;2586;48.710;9.202;2023-05-14T00:56:58;11.60;1.00
5136;DHT22;2586;48.710;9.202;2023-05-14T00:59:24;11.60;99.90
5136;DHT22;2586;48.710;9.202;2023-05-14T01:01:50;11.50;99.90
5136;DHT22;2586;48.710;9.202;2023-05-14T01:04:16;11.50;69.90
5136;DHT22;2586;48.710;9.202;2023-05-14T01:09:41;11.50;1.00
5136;DHT22;2586;48.710;9.202;2023-05-14T01:17:32;11.40;83.30
5136;DHT22;2586;48.710;9.202;2023-05-14T01:19:58;11.40;99.90
5136;DHT22;2586;48.710;9.202;2023-05-14T01:22:24;11.30;99.90
5136;DHT22;2586;48.710;9.202;2023-05-14T01:24:50;11.30;99.90
5136;DHT22;2586;48.710;9.202;2023-05-14T01:30:18;11.10;1.00
5136;DHT22;2586;48.710;9.202;2023-05-14T01:32:50;11.00;1.00
5136;DHT22;2586;48.710;9.202;2023-05-14T01:35:17;11.00;1.00
5136;DHT22;2586;48.710;9.202;2023-05-14T01:37:43;10.90;44.30
5136;DHT22;2586;48.710;9.202;2023-05-14T01:40:10;10.80;60.60
5136;DHT22;2586;48.710;9.202;2023-05-14T01:42:37;10.60;99.90
5136;DHT22;2586;48.710;9.202;2023-05-14T01:45:03;10.60;99.90
5136;DHT22;2586;48.710;9.202;2023-05-14T01:47:28;10.50;99.90
5136;DHT22;2586;48.710;9.202;2023-05-14T01:49:54;10.40;99.90
5136;DHT22;2586;48.710;9.202;2023-05-14T01:52:20;10.30;99.90
5136;DHT22;2586;48.710;9.202;2023-05-14T01:54:46;10.20;99.90
5136;DHT22;2586;48.710;9.202;2023-05-14T01:57:12;10.20;99.90
5136;DHT22;2586;48.710;9.202;2023-05-14T01:59:38;10.10;99.90
5136;DHT22;2586;48.710;9.202;2023-05-14T02:02:03;10.10;99.90
5136;DHT22;2586;48.710;9.202;2023-05-14T02:04:29;10.00;99.90
5136;DHT22;2586;48.710;9.202;2023-05-14T02:06:54;10.00;99.90
5136;DHT22;2586;48.710;9.202;2023-05-14T02:09:20;9.90;99.90
5136;DHT22;2586;48.710;9.202;2023-05-14T02:11:46;9.80;99.90
5136;DHT22;2586;48.710;9.202;2023-05-14T02:14:12;9.70;99.90
5136;DHT22;2586;48.710;9.202;2023-05-14T02:16:39;9.70;99.90
5136;DHT22;2586;48.710;9.202;2023-05-14T02:19:05;9.60;99.90
5136;DHT22;2586;48.710;9.202;2023-05-14T02:21:30;9.60;99.90
5136;DHT22;2586;48.710;9.202;2023-05-14T02:23:56;9.50;99.90
5136;DHT22;2586;48.710;9.202;2023-05-14T02:26:22;9.60;99.90
5136;DHT22;2586;48.710;9.202;2023-05-14T02:28:47;9.60;99.90
5136;DHT22;2586;48.710;9.202;2023-05-14T02:31:13;9.60;99.90
5136;DHT22;2586;48.710;9.202;2023-05-14T02:33:39;9.70;99.90
5136;DHT22;2586;48.710;9.202;2023-05-14T02:36:05;9.80;99.90
5136;DHT22;2586;48.710;9.202;2023-05-14T02:38:30;9.90;99.90
5136;DHT22;2586;48.710;9.202;2023-05-14T02:40:56;10.00;99.90
5136;DHT22;2586;48.710;9.202;2023-05-14T02:43:21;10.10;99.90
5136;DHT22;2586;48.710;9.202;2023-05-14T02:45:47;10.20;99.90
5136;DHT22;2586;48.710;9.202;2023-05-14T02:48:12;10.20;99.90
5136;DHT22;2586;48.710;9.202;2023-05-14T02:50:38;10.30;99.90
5136;DHT22;2586;48.710;9.202;2023-05-14T02:53:04;10.30;99.90
5136;DHT22;2586;48.710;9.202;2023-05-14T02:55:29;10.30;99.90
5136;DHT22;2586;48.710;9.202;2023-05-14T02:57:55;10.30;99.90
5136;DHT22;2586;48.710;9.202;2023-05-14T03:00:21;10.40;99.90
5136;DHT22;2586;48.710;9.202;2023-05-14T03:02:46;10.40;99.90
5136;DHT22;2586;48.710;9.202;2023-05-14T03:05:12;10.40;99.90
5136;DHT22;2586;48.710;9.202;2023-05-14T03:07:38;10.50;99.90
5136;DHT22;2586;48.710;9.202;2023-05-14T03:10:04;10.50;99.90
5136;DHT22;2586;48.710;9.202;2023-05-14T03:12:30;10.50;99.90
5136;DHT22;2586;48.710;9.202;2023-05-14T03:14:55;10.50;99.90
5136;DHT22;2586;48.710;9.202;2023-05-14T03:17:21;10.60;99.90
5136;DHT22;2586;48.710;9.202;2023-05-14T03:19:47;10.60;99.90
5136;DHT22;2586;48.710;9.202;2023-05-14T03:22:13;10.60;99.90
5136;DHT22;2586;48.710;9.202;2023-05-14T03:24:38;10.60;99.90
5136;DHT22;2586;48.710;9.202;2023-05-14T03:27:05;10.60;99.90
5136;DHT22;2586;48.710;9.202;2023-05-14T03:29:30;10.60;99.90
5136;DHT22;2586;48.710;9.202;2023-05-14T03:31:56;10.60;99.90
5136;DHT22;2586;48.710;9.202;2023-05-14T03:34:21;10.60;99.90
5136;DHT22;2586;48.710;9.202;2023-05-14T03:36:47;10.60;99.90
5136;DHT22;2586;48.710;9.202;2023-05-14T03:39:12;10.60;99.90
5136;DHT22;2586;48.710;9.202;2023-05-14T03:41:46;10.60;99.90
5136;DHT22;2586;48.710;9.202;2023-05-14T03:44:12;10.60;99.90
5136;DHT22;2586;48.710;9.202;2023-05-14T03:46:38;10.60;99.90
5136;DHT22;2586;48.710;9.202;2023-05-14T03:49:04;10.50;99.90
5136;DHT22;2586;48.710;9.202;2023-05-14T03:51:30;10.60;99.90
5136;DHT22;2586;48.710;9.202;2023-05-14T03:53:56;10.60;99.90
5136;DHT22;2586;48.710;9.202;2023-05-14T03:56:22;10.70;99.90
5136;DHT22;2586;48.710;9.202;2023-05-14T03:58:48;10.70;99.90
5136;DHT22;2586;48.710;9.202;2023-05-14T04:01:14;10.70;99.90
5136;DHT22;2586;48.710;9.202;2023-05-14T04:03:39;10.70;99.90
5136;DHT22;2586;48.710;9.202;2023-05-14T04:06:05;10.60;99.90
5136;DHT22;2586;48.710;9.202;2023-05-14T04:08:30;10.60;99.90
5136;DHT22;2586;48.710;9.202;2023-05-14T04:10:56;10.60;99.90
5136;DHT22;2586;48.710;9.202;2023-05-14T04:13:22;10.60;99.90
5136;DHT22;2586;48.710;9.202;2023-05-14T04:15:47;10.60;99.90
5136;DHT22;2586;48.710;9.202;2023-05-14T04:18:13;10.60;99.90
5136;DHT22;2586;48.710;9.202;2023-05-14T04:20:38;10.60;99.90
5136;DHT22;2586;48.710;9.202;2023-05-14T04:23:04;10.60;99.90
5136;DHT22;2586;48.710;9.202;2023-05-14T04:25:30;10.60;99.90
5136;DHT22;2586;48.710;9.202;2023-05-14T04:27:56;10.70;99.90
5136;DHT22;2586;48.710;9.202;2023-05-14T04:30:22;10.70;99.90
5136;DHT22;2586;48.710;9.202;2023-05-14T04:32:48;10.60;99.90
5136;DHT22;2586;48.710;9.202;2023-05-14T04:35:14;10.60;99.90
5136;DHT22;2586;48.710;9.202;2023-05-14T04:37:39;10.60;99.90
5136;DHT22;2586;48.710;9.202;2023-05-14T04:40:06;10.60;99.90
5136;DHT22;2586;48.710;9.202;2023-05-14T04:42:32;10.70;99.90
5136;DHT22;2586;48.710;9.202;2023-05-14T04:44:58;10.70;99.90
5136;DHT22;2586;48.710;9.202;2023-05-14T04:47:23;10.70;99.90
5136;DHT22;2586;48.710;9.202;2023-05-14T04:49:49;10.70;99.90
5136;DHT22;2586;48.710;9.202;2023-05-14T04:52:15;10.70;99.90
5136;DHT22;2586;48.710;9.202;2023-05-14T04:54:40;10.70;83.70
5136;DHT22;2586;48.710;9.202;2023-05-14T04:57:06;10.80;99.80
5136;DHT22;2586;48.710;9.202;2023-05-14T04:59:31;10.80;99.90
5136;DHT22;2586;48.710;9.202;2023-05-14T05:01:57;10.80;99.90
5136;DHT22;2586;48.710;9.202;2023-05-14T05:04:23;10.80;99.90
5136;DHT22;2586;48.710;9.202;2023-05-14T05:06:49;10.90;99.90
5136;DHT22;2586;48.710;9.202;2023-05-14T05:09:16;10.90;99.90
5136;DHT22;2586;48.710;9.202;2023-05-14T05:11:42;10.90;99.90
5136;DHT22;2586;48.710;9.202;2023-05-14T05:14:08;10.90;99.90
5136;DHT22;2586;48.710;9.202;2023-05-14T05:16:33;10.90;99.50
5136;DHT22;2586;48.710;9.202;2023-05-14T05:18:59;11.00;40.20
5136;DHT22;2586;48.710;9.202;2023-05-14T05:21:25;11.00;16.70
5136;DHT22;2586;48.710;9.202;2023-05-14T05:23:50;11.00;1.00
5136;DHT22;2586;48.710;9.202;2023-05-14T05:26:16;11.00;1.00
5136;DHT22;2586;48.710;9.202;2023-05-14T05:28:41;11.00;1.00
5136;DHT22;2586;48.710;9.202;2023-05-14T05:31:07;11.00;1.00
5136;DHT22;2586;48.710;9.202;2023-05-14T05:33:33;11.00;15.10
5136;DHT22;2586;48.710;9.202;2023-05-14T05:35:59;11.10;22.90
5136;DHT22;2586;48.710;9.202;2023-05-14T05:38:25;11.10;31.20
5136;DHT22;2586;48.710;9.202;2023-05-14T05:40:50;11.20;1.00
5136;DHT22;2586;48.710;9.202;2023-05-14T05:43:16;11.20;1.00
5136;DHT22;2586;48.710;9.202;2023-05-14T05:45:42;11.30;1.00
5136;DHT22;2586;48.710;9.202;2023-05-14T05:48:08;11.30;1.00
5136;DHT22;2586;48.710;9.202;2023-05-14T05:50:33;11.40;1.00
5136;DHT22;2586;48.710;9.202;2023-05-14T05:52:59;11.40;1.00
5136;DHT22;2586;48.710;9.202;2023-05-14T05:55:24;11.40;1.00
5136;DHT22;2586;48.710;9.202;2023-05-14T05:57:50;11.30;1.00
5136;DHT22;2586;48.710;9.202;2023-05-14T06:00:16;11.40;99.90
5136;DHT22;2586;48.710;9.202;2023-05-14T06:02:42;11.30;83.10
5136;DHT22;2586;48.710;9.202;2023-05-14T06:05:08;11.30;99.90
5136;DHT22;2586;48.710;9.202;2023-05-14T06:07:34;11.30;41.40
5136;DHT22;2586;48.710;9.202;2023-05-14T06:10:00;11.30;99.90
5136;DHT22;2586;48.710;9.202;2023-05-14T06:12:26;11.30;1.00
5136;DHT22;2586;48.710;9.202;2023-05-14T06:14:53;11.40;1.00
5136;DHT22;2586;48.710;9.202;2023-05-14T06:17:23;11.30;99.90
5136;DHT22;2586;48.710;9.202;2023-05-14T06:19:49;11.20;1.00
5136;DHT22;2586;48.710;9.202;2023-05-14T06:22:15;11.20;1.00
5136;DHT22;2586;48.710;9.202;2023-05-14T06:24:41;11.30;1.00
5136;DHT22;2586;48.710;9.202;2023-05-14T06:27:06;11.40;99.90
5136;DHT22;2586;48.710;9.202;2023-05-14T06:29:32;11.40;99.90
5136;DHT22;2586;48.710;9.202;2023-05-14T06:32:01;11.60;1.00
5136;DHT22;2586;48.710;9.202;2023-05-14T06:34:28;11.70;1.00
5136;DHT22;2586;48.710;9.202;2023-05-14T06:36:53;11.80;13.40
5136;DHT22;2586;48.710;9.202;2023-05-14T06:39:19;11.90;99.90
5136;DHT22;2586;48.710;9.202;2023-05-14T06:41:44;11.90;1.00
5136;DHT22;2586;48.710;9.202;2023-05-14T06:44:10;12.00;1.00
5136;DHT22;2586;48.710;9.202;2023-05-14T06:46:36;12.10;1.00
5136;DHT22;2586;48.710;9.202;2023-05-14T06:49:01;12.20;99.90
5136;DHT22;2586;48.710;9.202;2023-05-14T06:51:27;12.20;1.00
5136;DHT22;2586;48.710;9.202;2023-05-14T06:53:54;12.40;99.90
5136;DHT22;2586;48.710;9.202;2023-05-14T06:56:20;12.40;1.00
5136;DHT22;2586;48.710;9.202;2023-05-14T06:58:46;12.40;1.00
5136;DHT22;2586;48.710;9.202;2023-05-14T07:01:12;12.60;1.00
5136;DHT22;2586;48.710;9.202;2023-05-14T07:03:38;12.60;99.90
5136;DHT22;2586;48.710;9.202;2023-05-14T07:06:03;12.70;1.00
5136;DHT22;2586;48.710;9.202;2023-05-14T07:08:29;12.70;1.00
5136;DHT22;2586;48.710;9.202;2023-05-14T07:10:54;12.70;99.90
5136;DHT22;2586;48.710;9.202;2023-05-14T07:13:22;12.50;99.90
5136;DHT22;2586;48.710;9.202;2023-05-14T07:15:47;12.50;1.00
5136;DHT22;2586;48.710;9.202;2023-05-14T07:18:13;12.60;1.00
5136;DHT22;2586;48.710;9.202;2023-05-14T07:20:39;12.70;1.00
5136;DHT22;2586;48.710;9.202;2023-05-14T07:23:05;12.80;99.90
5136;DHT22;2586;48.710;9.202;2023-05-14T07:25:33;12.90;79.20
5136;DHT22;2586;48.710;9.202;2023-05-14T07:27:59;13.10;99.90
5136;DHT22;2586;48.710;9.202;2023-05-14T07:30:24;13.10;75.10
5136;DHT22;2586;48.710;9.202;2023-05-14T07:32:50;13.20;1.00
5136;DHT22;2586;48.710;9.202;2023-05-14T07:35:16;13.10;99.90
5136;DHT22;2586;48.710;9.202;2023-05-14T07:37:41;13.40;99.90
5136;DHT22;2586;48.710;9.202;2023-05-14T07:40:08;13.50;1.00
5136;DHT22;2586;48.710;9.202;2023-05-14T07:42:34;13.60;99.90
5136;DHT22;2586;48.710;9.202;2023-05-14T07:44:59;13.70;1.00
5136;DHT22;2586;48.710;9.202;2023-05-14T07:47:25;13.90;99.90
5136;DHT22;2586;48.710;9.202;2023-05-14T07:49:55;14.00;99.90
5136;DHT22;2586;48.710;9.202;2023-05-14T07:52:21;14.00;1.00
5136;DHT22;2586;48.710;9.202;2023-05-14T07:54:47;14.00;84.90
5136;DHT22;2586;48.710;9.202;2023-05-14T07:57:12;13.90;35.20
5136;DHT22;2586;48.710;9.202;2023-05-14T07:59:38;14.00;1.00
5136;DHT22;2586;48.710;9.202;2023-05-14T08:02:03;13.90;1.00
5136;DHT22;2586;48.710;9.202;2023-05-14T08:04:29;14.10;1.00
5136;DHT22;2586;48.710;9.202;2023-05-14T08:06:55;14.30;3.20
5136;DHT22;2586;48.710;9.202;2023-05-14T08:09:22;14.30;1.00
5136;DHT22;2586;48.710;9.202;2023-05-14T08:11:48;14.30;99.90
5136;DHT22;2586;48.710;9.202;2023-05-14T08:14:13;13.90;99.90
5136;DHT22;2586;48.710;9.202;2023-05-14T08:16:39;14.00;99.90
5136;DHT22;2586;48.710;9.202;2023-05-14T08:19:05;14.40;1.00
5136;DHT22;2586;48.710;9.202;2023-05-14T08:21:31;14.60;1.00
5136;DHT22;2586;48.710;9.202;2023-05-14T08:23:57;14.60;99.90
5136;DHT22;2586;48.710;9.202;2023-05-14T08:26:22;14.70;99.90
5136;DHT22;2586;48.710;9.202;2023-05-14T08:28:48;14.90;99.90
5136;DHT22;2586;48.710;9.202;2023-05-14T08:31:14;14.90;99.90
5136;DHT22;2586;48.710;9.202;2023-05-14T08:33:39;15.00;99.90
5136;DHT22;2586;48.710;9.202;2023-05-14T08:36:06;15.20;99.90
5136;DHT22;2586;48.710;9.202;2023-05-14T08:38:32;15.20;1.00
5136;DHT22;2586;48.710;9.202;2023-05-14T08:40:58;15.00;99.90
5136;DHT22;2586;48.710;9.202;2023-05-14T08:43:43;15.10;99.90
5136;DHT22;2586;48.710;9.202;2023-05-14T08:46:12;15.40;99.90
5136;DHT22;2586;48.710;9.202;2023-05-14T08:48:41;15.70;1.00
5136;DHT22;2586;48.710;9.202;2023-05-14T08:51:08;15.90;1.00
5136;DHT22;2586;48.710;9.202;2023-05-14T08:53:34;16.10;1.00
5136;DHT22;2586;48.710;9.202;2023-05-14T08:56:03;16.10;99.90
5136;DHT22;2586;48.710;9.202;2023-05-14T08:58:29;16.20;1.00
5136;DHT22;2586;48.710;9.202;2023-05-14T09:00:55;16.20;99.90
5136;DHT22;2586;48.710;9.202;2023-05-14T09:03:21;16.30;1.00
5136;DHT22;2586;48.710;9.202;2023-05-14T09:05:48;16.30;1.00
5136;DHT22;2586;48.710;9.202;2023-05-14T09:08:15;16.30;99.90
5136;DHT22;2586;48.710;9.202;2023-05-14T09:10:41;16.40;83.30
5136;DHT22;2586;48.710;9.202;2023-05-14T09:13:07;16.20;1.00
5136;DHT22;2586;48.710;9.202;2023-05-14T09:15:36;16.10;99.90
5136;DHT22;2586;48.710;9.202;2023-05-14T09:18:04;16.10;99.90
5136;DHT22;2586;48.710;9.202;2023-05-14T09:20:30;16.20;99.90
5136;DHT22;2586;48.710;9.202;2023-05-14T09:22:57;16.40;1.00
5136;DHT22;2586;48.710;9.202;2023-05-14T09:25:32;16.40;99.90
5136;DHT22;2586;48.710;9.202;2023-05-14T09:27:58;16.30;1.00
5136;DHT22;2586;48.710;9.202;2023-05-14T09:30:24;16.40;1.00
5136;DHT22;2586;48.710;9.202;2023-05-14T09:32:53;16.40;1.00
5136;DHT22;2586;48.710;9.202;2023-05-14T09:35:23;16.40;1.00
5136;DHT22;2586;48.710;9.202;2023-05-14T09:37:51;16.40;1.00
5136;DHT22;2586;48.710;9.202;2023-05-14T09:40:18;16.60;8.30
5136;DHT22;2586;48.710;9.202;2023-05-14T09:42:44;16.80;1.00
5136;DHT22;2586;48.710;9.202;2023-05-14T09:45:10;16.90;99.90
5136;DHT22;2586;48.710;9.202;2023-05-14T09:47:36;16.80;1.00
5136;DHT22;2586;48.710;9.202;2023-05-14T09:50:03;16.70;1.00
5136;DHT22;2586;48.710;9.202;2023-05-14T09:52:29;16.80;1.00
5136;DHT22;2586;48.710;9.202;2023-05-14T09:54:55;16.90;1.00
5136;DHT22;2586;48.710;9.202;2023-05-14T09:57:21;16.90;1.00
5136;DHT22;2586;48.710;9.202;2023-05-14T09:59:47;16.80;1.00
5136;DHT22;2586;48.710;9.202;2023-05-14T10:02:25;16.90;1.00
5136;DHT22;2586;48.710;9.202;2023-05-14T10:04:52;16.80;1.00
5136;DHT22;2586;48.710;9.202;2023-05-14T10:07:21;16.60;99.90
5136;DHT22;2586;48.710;9.202;2023-05-14T10:09:47;16.40;99.90
5136;DHT22;2586;48.710;9.202;2023-05-14T10:12:15;16.40;1.00
5136;DHT22;2586;48.710;9.202;2023-05-14T10:14:46;16.30;1.00
5136;DHT22;2586;48.710;9.202;2023-05-14T10:17:20;16.20;99.90
5136;DHT22;2586;48.710;9.202;2023-05-14T10:19:52;16.10;1.00
5136;DHT22;2586;48.710;9.202;2023-05-14T10:22:22;16.30;99.90
5136;DHT22;2586;48.710;9.202;2023-05-14T10:24:48;16.40;99.90
5136;DHT22;2586;48.710;9.202;2023-05-14T10:27:19;16.30;1.00
5136;DHT22;2586;48.710;9.202;2023-05-14T10:29:51;16.50;93.00
5136;DHT22;2586;48.710;9.202;2023-05-14T10:32:21;16.50;15.10
5136;DHT22;2586;48.710;9.202;2023-05-14T10:34:49;16.70;27.10
5136;DHT22;2586;48.710;9.202;2023-05-14T10:37:26;16.70;1.00
5136;DHT22;2586;48.710;9.202;2023-05-14T10:39:53;16.90;1.00
5136;DHT22;2586;48.710;9.202;2023-05-14T10:42:31;17.20;1.00
5136;DHT22;2586;48.710;9.202;2023-05-14T10:44:59;17.40;1.00
5136;DHT22;2586;48.710;9.202;2023-05-14T10:47:27;17.20;99.90
5136;DHT22;2586;48.710;9.202;2023-05-14T10:49:54;17.10;99.90
5136;DHT22;2586;48.710;9.202;2023-05-14T10:52:23;16.80;99.90
5136;DHT22;2586;48.710;9.202;2023-05-14T10:54:57;17.10;1.00
5136;DHT22;2586;48.710;9.202;2023-05-14T10:57:28;17.80;99.90
5136;DHT22;2586;48.710;9.202;2023-05-14T10:59:56;18.10;99.90
5136;DHT22;2586;48.710;9.202;2023-05-14T11:02:28;18.50;99.90
5136;DHT22;2586;48.710;9.202;2023-05-14T11:07:38;20.10;99.90
5136;DHT22;2586;48.710;9.202;2023-05-14T11:10:08;21.00;99.90
5136;DHT22;2586;48.710;9.202;2023-05-14T11:12:36;21.60;99.90
5136;DHT22;2586;48.710;9.202;2023-05-14T11:15:08;21.90;99.90
5136;DHT22;2586;48.710;9.202;2023-05-14T11:17:34;21.90;99.90
5136;DHT22;2586;48.710;9.202;2023-05-14T11:20:00;21.30;91.10
5136;DHT22;2586;48.710;9.202;2023-05-14T11:22:26;20.50;96.40
5136;DHT22;2586;48.710;9.202;2023-05-14T11:24:52;19.90;90.10
5136;DHT22;2586;48.710;9.202;2023-05-14T11:27:18;19.70;99.90
5136;DHT22;2586;48.710;9.202;2023-05-14T11:29:45;20.50;99.90
5136;DHT22;2586;48.710;9.202;2023-05-14T11:32:12;20.90;99.90
5136;DHT22;2586;48.710;9.202;2023-05-14T11:34:38;20.70;94.40
5136;DHT22;2586;48.710;9.202;2023-05-14T11:37:06;20.70;99.20
5136;DHT22;2586;48.710;9.202;2023-05-14T11:39:32;20.50;93.50
5136;DHT22;2586;48.710;9.202;2023-05-14T11:41:58;20.00;95.50
5136;DHT22;2586;48.710;9.202;2023-05-14T11:44:26;20.30;99.90
5136;DHT22;2586;48.710;9.202;2023-05-14T11:46:56;21.30;90.10
5136;DHT22;2586;48.710;9.202;2023-05-14T11:49:22;22.10;76.60
5136;DHT22;2586;48.710;9.202;2023-05-14T11:51:49;22.00;57.80
5136;DHT22;2586;48.710;9.202;2023-05-14T11:54:14;21.10;62.60
5136;DHT22;2586;48.710;9.202;2023-05-14T11:56:40;20.60;77.40
5136;DHT22;2586;48.710;9.202;2023-05-14T11:59:06;20.30;80.90
5136;DHT22;2586;48.710;9.202;2023-05-14T12:01:36;20.00;72.70
5136;DHT22;2586;48.710;9.202;2023-05-14T12:04:03;19.70;78.00
5136;DHT22;2586;48.710;9.202;2023-05-14T12:06:32;19.50;83.70
5136;DHT22;2586;48.710;9.202;2023-05-14T12:08:57;19.40;99.30
5136;DHT22;2586;48.710;9.202;2023-05-14T12:11:27;19.20;99.90
5136;DHT22;2586;48.710;9.202;2023-05-14T12:13:54;19.30;99.90
5136;DHT22;2586;48.710;9.202;2023-05-14T12:16:20;19.30;99.90
5136;DHT22;2586;48.710;9.202;2023-05-14T12:18:45;19.40;99.90
5136;DHT22;2586;48.710;9.202;2023-05-14T12:21:11;19.10;99.90
5136;DHT22;2586;48.710;9.202;2023-05-14T12:23:38;19.10;99.90
5136;DHT22;2586;48.710;9.202;2023-05-14T12:26:05;19.10;99.90
5136;DHT22;2586;48.710;9.202;2023-05-14T12:28:31;18.90;99.90
5136;DHT22;2586;48.710;9.202;2023-05-14T12:30:57;18.50;99.90
5136;DHT22;2586;48.710;9.202;2023-05-14T12:33:24;18.40;99.90
5136;DHT22;2586;48.710;9.202;2023-05-14T12:35:54;18.60;99.90
5136;DHT22;2586;48.710;9.202;2023-05-14T12:38:27;18.60;99.90
5136;DHT22;2586;48.710;9.202;2023-05-14T12:40:52;18.60;99.90
5136;DHT22;2586;48.710;9.202;2023-05-14T12:43:19;18.80;99.90
5136;DHT22;2586;48.710;9.202;2023-05-14T12:45:44;19.30;99.90
5136;DHT22;2586;48.710;9.202;2023-05-14T12:48:10;19.00;99.90
5136;DHT22;2586;48.710;9.202;2023-05-14T12:50:37;18.60;99.90
5136;DHT22;2586;48.710;9.202;2023-05-14T12:53:03;18.60;99.90
5136;DHT22;2586;48.710;9.202;2023-05-14T12:55:29;18.50;99.90
5136;DHT22;2586;48.710;9.202;2023-05-14T12:57:54;18.50;99.90
5136;DHT22;2586;48.710;9.202;2023-05-14T13:00:20;18.50;1.00
5136;DHT22;2586;48.710;9.202;2023-05-14T13:02:45;18.70;99.90
5136;DHT22;2586;48.710;9.202;2023-05-14T13:05:11;18.70;1.00
5136;DHT22;2586;48.710;9.202;2023-05-14T13:07:37;18.70;99.90
5136;DHT22;2586;48.710;9.202;2023-05-14T13:10:03;18.80;99.90
5136;DHT22;2586;48.710;9.202;2023-05-14T13:12:30;18.90;99.90
5136;DHT22;2586;48.710;9.202;2023-05-14T13:14:55;18.90;99.90
5136;DHT22;2586;48.710;9.202;2023-05-14T13:17:21;19.20;99.90
5136;DHT22;2586;48.710;9.202;2023-05-14T13:19:46;19.30;99.90
5136;DHT22;2586;48.710;9.202;2023-05-14T13:22:12;19.40;99.90
5136;DHT22;2586;48.710;9.202;2023-05-14T13:24:38;20.90;99.90
5136;DHT22;2586;48.710;9.202;2023-05-14T13:27:04;22.10;99.90
5136;DHT22;2586;48.710;9.202;2023-05-14T13:29:30;21.80;74.40
5136;DHT22;2586;48.710;9.202;2023-05-14T13:31:56;20.80;54.90
5136;DHT22;2586;48.710;9.202;2023-05-14T13:34:21;20.10;58.70
5136;DHT22;2586;48.710;9.202;2023-05-14T13:36:47;19.70;83.30
5136;DHT22;2586;48.710;9.202;2023-05-14T13:39:14;19.30;68.00
5136;DHT22;2586;48.710;9.202;2023-05-14T13:41:39;19.00;76.30
5136;DHT22;2586;48.710;9.202;2023-05-14T13:44:05;18.60;89.50
5136;DHT22;2586;48.710;9.202;2023-05-14T13:46:31;18.40;93.40
5136;DHT22;2586;48.710;9.202;2023-05-14T13:48:56;18.30;92.90
5136;DHT22;2586;48.710;9.202;2023-05-14T13:51:22;18.20;99.90
5136;DHT22;2586;48.710;9.202;2023-05-14T13:53:48;18.00;99.90
5136;DHT22;2586;48.710;9.202;2023-05-14T13:56:14;18.00;99.90
5136;DHT22;2586;48.710;9.202;2023-05-14T13:58:39;18.00;99.90
5136;DHT22;2586;48.710;9.202;2023-05-14T14:01:05;18.00;99.90
5136;DHT22;2586;48.710;9.202;2023-05-14T14:03:30;18.10;99.90
5136;DHT22;2586;48.710;9.202;2023-05-14T14:05:56;18.20;99.90
5136;DHT22;2586;48.710;9.202;2023-05-14T14:08:22;18.20;99.90
5136;DHT22;2586;48.710;9.202;2023-05-14T14:10:47;19.30;99.90
5136;DHT22;2586;48.710;9.202;2023-05-14T14:13:13;20.70;84.30
5136;DHT22;2586;48.710;9.202;2023-05-14T14:15:38;22.00;50.10
5136;DHT22;2586;48.710;9.202;2023-05-14T14:18:04;22.80;46.00
5136;DHT22;2586;48.710;9.202;2023-05-14T14:20:30;24.10;40.10
5136;DHT22;2586;48.710;9.202;2023-05-14T14:22:56;24.70;18.00
5136;DHT22;2586;48.710;9.202;2023-05-14T14:25:22;25.20;10.00
5136;DHT22;2586;48.710;9.202;2023-05-14T14:27:47;24.90;1.00
5136;DHT22;2586;48.710;9.202;2023-05-14T14:30:13;25.40;1.00
5136;DHT22;2586;48.710;9.202;2023-05-14T14:32:43;25.10;1.00
5136;DHT22;2586;48.710;9.202;2023-05-14T14:35:09;25.40;1.00
5136;DHT22;2586;48.710;9.202;2023-05-14T14:37:35;25.60;1.00
5136;DHT22;2586;48.710;9.202;2023-05-14T14:40:01;25.60;1.00
5136;DHT22;2586;48.710;9.202;2023-05-14T14:42:27;26.00;1.00
5136;DHT22;2586;48.710;9.202;2023-05-14T14:44:52;26.20;1.00
5136;DHT22;2586;48.710;9.202;2023-05-14T14:47:18;26.00;1.00
5136;DHT22;2586;48.710;9.202;2023-05-14T14:49:43;25.90;1.00
5136;DHT22;2586;48.710;9.202;2023-05-14T14:52:09;25.90;1.00
5136;DHT22;2586;48.710;9.202;2023-05-14T14:54:34;26.20;1.00
5136;DHT22;2586;48.710;9.202;2023-05-14T14:57:00;26.30;1.00
5136;DHT22;2586;48.710;9.202;2023-05-14T14:59:25;27.00;1.00
5136;DHT22;2586;48.710;9.202;2023-05-14T15:01:51;26.90;1.00
5136;DHT22;2586;48.710;9.202;2023-05-14T15:04:17;26.20;1.00
5136;DHT22;2586;48.710;9.202;2023-05-14T15:06:42;26.50;1.00
5136;DHT22;2586;48.710;9.202;2023-05-14T15:09:08;26.40;1.00
5136;DHT22;2586;48.710;9.202;2023-05-14T15:11:33;26.70;1.00
5136;DHT22;2586;48.710;9.202;2023-05-14T15:13:59;26.20;1.00
5136;DHT22;2586;48.710;9.202;2023-05-14T15:16:24;26.20;1.00
5136;DHT22;2586;48.710;9.202;2023-05-14T15:18:50;26.80;1.00
5136;DHT22;2586;48.710;9.202;2023-05-14T15:21:16;27.30;1.00
5136;DHT22;2586;48.710;9.202;2023-05-14T15:23:41;27.50;1.00
5136;DHT22;2586;48.710;9.202;2023-05-14T15:26:07;26.30;1.00
5136;DHT22;2586;48.710;9.202;2023-05-14T15:28:33;25.70;1.00
5136;DHT22;2586;48.710;9.202;2023-05-14T15:30:58;23.80;1.00
5136;DHT22;2586;48.710;9.202;2023-05-14T15:33:24;22.70;1.00
5136;DHT22;2586;48.710;9.202;2023-05-14T15:35:49;21.60;1.00
5136;DHT22;2586;48.710;9.202;2023-05-14T15:38:15;20.70;1.00
5136;DHT22;2586;48.710;9.202;2023-05-14T15:40:41;20.00;99.90
5136;DHT22;2586;48.710;9.202;2023-05-14T15:43:06;19.50;99.90
5136;DHT22;2586;48.710;9.202;2023-05-14T15:45:32;18.80;99.90
5136;DHT22;2586;48.710;9.202;2023-05-14T15:47:57;18.20;1.00
5136;DHT22;2586;48.710;9.202;2023-05-14T15:50:23;17.80;1.00
5136;DHT22;2586;48.710;9.202;2023-05-14T15:52:49;17.50;1.00
5136;DHT22;2586;48.710;9.202;2023-05-14T15:55:15;17.10;1.00
5136;DHT22;2586;48.710;9.202;2023-05-14T15:57:41;17.00;99.90
5136;DHT22;2586;48.710;9.202;2023-05-14T16:00:07;17.70;1.00
5136;DHT22;2586;48.710;9.202;2023-05-14T16:02:37;18.50;99.90
5136;DHT22;2586;48.710;9.202;2023-05-14T16:05:03;18.80;1.00
5136;DHT22;2586;48.710;9.202;2023-05-14T16:07:29;18.60;1.00
5136;DHT22;2586;48.710;9.202;2023-05-14T16:09:55;18.40;1.00
5136;DHT22;2586;48.710;9.202;2023-05-14T16:12:21;18.10;25.40
5136;DHT22;2586;48.710;9.202;2023-05-14T16:14:46;17.60;1.00